createdAt,value
2018-04-06T00:01:13.383Z,5.67
2018-04-06T00:03:40.906Z,6.10
2018-04-06T00:06:08.488Z,6.13
2018-04-06T00:08:36.008Z,5.23
2018-04-06T00:11:04.427Z,5.77
2018-04-06T00:13:31.984Z,5.70
2018-04-06T00:15:59.498Z,6.20
2018-04-06T00:18:27.030Z,5.30
2018-04-06T00:20:54.667Z,5.80
2018-04-06T00:23:22.232Z,4.90
2018-04-06T00:25:49.790Z,5.40
2018-04-06T00:28:17.356Z,5.70
2018-04-06T00:30:44.874Z,5.80
2018-04-06T00:33:13.190Z,6.03
2018-04-06T00:35:40.724Z,5.63
2018-04-06T00:38:09.038Z,6.23
2018-04-06T00:40:36.568Z,6.13
2018-04-06T00:43:04.849Z,6.40
2018-04-06T00:45:32.368Z,6.10
2018-04-06T00:47:59.897Z,5.83
2018-04-06T00:50:27.440Z,5.63
2018-04-06T00:52:54.960Z,5.47
2018-04-06T00:55:22.506Z,5.70
2018-04-06T00:57:50.032Z,5.40
2018-04-06T01:00:17.586Z,5.53
2018-04-06T01:02:45.159Z,6.47
2018-04-06T01:05:12.683Z,5.37
2018-04-06T01:07:40.217Z,5.47
2018-04-06T01:10:09.372Z,5.40
2018-04-06T01:12:36.905Z,4.80
2018-04-06T01:15:05.194Z,5.63
2018-04-06T01:17:32.734Z,5.60
2018-04-06T01:20:01.030Z,5.80
2018-04-06T01:22:28.555Z,5.57
2018-04-06T01:24:56.168Z,6.43
2018-04-06T01:27:23.731Z,5.67
2018-04-06T01:29:51.275Z,5.57
2018-04-06T01:32:18.844Z,5.53
2018-04-06T01:34:46.365Z,5.50
2018-04-06T01:37:14.672Z,5.60
2018-04-06T01:39:42.195Z,6.33
2018-04-06T01:42:09.811Z,6.40
2018-04-06T01:44:37.325Z,6.33
2018-04-06T01:47:04.859Z,6.70
2018-04-06T01:49:32.377Z,5.40
2018-04-06T01:51:59.903Z,6.27
2018-04-06T01:54:28.326Z,5.07
2018-04-06T01:56:55.847Z,6.30
2018-04-06T01:59:24.143Z,5.77
2018-04-06T02:01:52.441Z,6.03
2018-04-06T02:04:19.965Z,6.27
2018-04-06T02:06:48.247Z,6.93
2018-04-06T02:09:16.551Z,5.93
2018-04-06T02:11:44.080Z,5.53
2018-04-06T02:14:12.369Z,5.43
2018-04-06T02:16:40.665Z,5.80
2018-04-06T02:19:08.186Z,6.37
2018-04-06T02:21:35.807Z,6.20
2018-04-06T02:24:03.346Z,7.07
2018-04-06T02:26:30.921Z,6.03
2018-04-06T02:28:58.427Z,5.90
2018-04-06T02:31:25.954Z,6.13
2018-04-06T02:33:53.476Z,6.63
2018-04-06T02:36:21.764Z,6.03
2018-04-06T02:38:49.301Z,6.20
2018-04-06T02:41:17.598Z,6.10
2018-04-06T02:43:45.129Z,6.10
2018-04-06T02:46:13.462Z,6.50
2018-04-06T02:48:40.979Z,5.73
2018-04-06T02:51:09.271Z,6.33
2018-04-06T02:53:36.862Z,6.13
2018-04-06T02:56:04.393Z,6.73
2018-04-06T02:58:31.923Z,6.00
2018-04-06T03:00:59.453Z,6.33
2018-04-06T03:03:27.847Z,6.17
2018-04-06T03:05:55.366Z,5.83
2018-04-06T03:08:22.939Z,6.43
2018-04-06T03:10:50.462Z,6.93
2018-04-06T03:13:18.878Z,6.60
2018-04-06T03:15:46.411Z,6.43
2018-04-06T03:18:14.723Z,6.13
2018-04-06T03:20:42.249Z,6.57
2018-04-06T03:23:10.661Z,7.73
2018-04-06T03:25:38.223Z,7.23
2018-04-06T03:28:05.740Z,6.03
2018-04-06T03:30:34.037Z,6.40
2018-04-06T03:33:01.616Z,6.70
2018-04-06T03:35:29.162Z,6.70
2018-04-06T03:37:56.711Z,6.37
2018-04-06T03:40:24.981Z,7.00
2018-04-06T03:42:53.264Z,6.50
2018-04-06T03:45:21.572Z,6.90
2018-04-06T03:47:49.090Z,7.03
2018-04-06T03:50:17.369Z,7.70
2018-04-06T03:52:45.651Z,8.30
2018-04-06T03:55:13.932Z,6.93
2018-04-06T03:57:42.228Z,6.93
2018-04-06T04:00:09.771Z,7.50
2018-04-06T04:02:38.054Z,7.83
2018-04-06T04:05:06.334Z,7.63
2018-04-06T04:07:34.624Z,7.87
2018-04-06T04:10:02.145Z,7.23
2018-04-06T04:12:29.672Z,7.90
2018-04-06T04:14:57.220Z,7.30
2018-04-06T04:17:24.778Z,7.40
2018-04-06T04:19:52.317Z,7.47
2018-04-06T04:22:19.862Z,7.03
2018-04-06T04:24:48.168Z,7.13
2018-04-06T04:27:15.682Z,7.73
2018-04-06T04:29:43.308Z,7.87
2018-04-06T04:32:10.826Z,7.43
2018-04-06T04:34:39.109Z,7.53
2018-04-06T04:37:07.617Z,7.70
2018-04-06T04:39:35.178Z,7.30
2018-04-06T04:42:02.738Z,7.37
2018-04-06T04:44:30.297Z,7.50
2018-04-06T04:46:57.836Z,7.80
2018-04-06T04:49:26.113Z,7.70
2018-04-06T04:51:54.514Z,7.50
2018-04-06T04:54:22.075Z,8.43
2018-04-06T04:56:49.583Z,7.53
2018-04-06T04:59:17.120Z,8.10
2018-04-06T05:01:44.750Z,8.00
2018-04-06T05:04:12.287Z,7.90
2018-04-06T05:06:40.579Z,8.43
2018-04-06T05:09:08.878Z,8.13
2018-04-06T05:11:36.407Z,8.33
2018-04-06T05:14:04.718Z,8.13
2018-04-06T05:16:32.265Z,8.20
2018-04-06T05:18:59.787Z,7.70
2018-04-06T05:21:27.310Z,8.57
2018-04-06T05:23:54.843Z,7.77
2018-04-06T05:26:22.411Z,7.47
2018-04-06T05:28:49.938Z,8.97
2018-04-06T05:31:18.217Z,8.03
2018-04-06T05:33:46.507Z,8.33
2018-04-06T05:36:14.849Z,7.77
2018-04-06T05:38:42.430Z,7.73
2018-04-06T05:41:09.935Z,7.47
2018-04-06T05:43:37.599Z,8.00
2018-04-06T05:46:05.116Z,7.90
2018-04-06T05:48:33.411Z,9.20
2018-04-06T05:51:01.728Z,8.03
2018-04-06T05:53:29.249Z,8.97
2018-04-06T05:55:57.539Z,8.00
2018-04-06T05:58:25.086Z,9.10
2018-04-06T06:00:53.417Z,8.07
2018-04-06T06:03:21.065Z,8.00
2018-04-06T06:05:48.719Z,8.27
2018-04-06T06:08:16.285Z,8.60
2018-04-06T06:10:43.817Z,8.13
2018-04-06T06:13:12.114Z,8.60
2018-04-06T06:15:39.636Z,9.57
2018-04-06T06:18:07.918Z,9.00
2018-04-06T06:20:36.215Z,8.67
2018-04-06T06:23:03.744Z,8.97
2018-04-06T06:25:31.262Z,9.37
2018-04-06T06:27:58.788Z,9.07
2018-04-06T06:30:27.080Z,9.57
2018-04-06T06:32:54.616Z,9.10
2018-04-06T06:35:22.946Z,9.60
2018-04-06T06:37:50.593Z,9.10
2018-04-06T06:40:18.123Z,9.07
2018-04-06T06:42:46.423Z,8.97
2018-04-06T06:45:13.996Z,9.20
2018-04-06T06:47:41.544Z,8.80
2018-04-06T06:50:09.100Z,9.33
2018-04-06T06:52:36.673Z,8.87
2018-04-06T06:55:04.234Z,8.97
2018-04-06T06:57:31.780Z,9.50
2018-04-06T06:59:59.308Z,9.47
2018-04-06T07:02:26.833Z,9.50
2018-04-06T07:04:54.471Z,8.67
2018-04-06T07:07:22.030Z,9.50
2018-04-06T07:09:49.551Z,8.97
2018-04-06T07:12:17.083Z,9.90
2018-04-06T07:14:44.616Z,9.00
2018-04-06T07:17:12.150Z,9.13
2018-04-06T07:19:40.563Z,8.80
2018-04-06T07:22:08.083Z,9.97
2018-04-06T07:24:36.385Z,9.77
2018-04-06T07:27:03.973Z,9.20
2018-04-06T07:29:31.537Z,9.33
2018-04-06T07:31:59.057Z,9.53
2018-04-06T07:34:26.590Z,10.07
2018-04-06T07:36:54.218Z,8.43
2018-04-06T07:39:21.739Z,8.60
2018-04-06T07:41:49.272Z,8.30
2018-04-06T07:44:16.828Z,8.63
2018-04-06T07:46:44.427Z,8.93
2018-04-06T07:49:11.972Z,8.63
2018-04-06T07:51:40.277Z,8.60
2018-04-06T07:54:07.852Z,8.70
2018-04-06T07:56:35.402Z,8.70
2018-04-06T07:59:02.941Z,8.33
2018-04-06T08:01:31.341Z,8.73
2018-04-06T08:03:58.874Z,7.93
2018-04-06T08:06:27.162Z,8.63
2018-04-06T08:08:54.804Z,8.40
2018-04-06T08:11:23.091Z,7.13
2018-04-06T08:13:51.387Z,7.57
2018-04-06T08:16:18.921Z,7.67
2018-04-06T08:18:47.234Z,8.03
2018-04-06T08:21:14.753Z,7.73
2018-04-06T08:23:43.042Z,7.23
2018-04-06T08:26:11.344Z,6.87
2018-04-06T08:28:38.908Z,7.03
2018-04-06T08:31:06.445Z,6.80
2018-04-06T08:33:33.993Z,7.07
2018-04-06T08:36:02.295Z,7.20
2018-04-06T08:38:29.835Z,7.63
2018-04-06T08:40:58.129Z,6.63
2018-04-06T08:43:25.661Z,7.20
2018-04-06T08:45:53.943Z,7.27
2018-04-06T08:48:21.649Z,7.23
2018-04-06T08:50:49.174Z,7.73
2018-04-06T08:53:17.494Z,8.17
2018-04-06T08:55:45.021Z,8.30
2018-04-06T08:58:13.308Z,8.20
2018-04-06T09:00:40.842Z,7.67
2018-04-06T09:03:09.149Z,7.30
2018-04-06T09:05:36.659Z,7.73
2018-04-06T09:08:04.190Z,7.57
2018-04-06T09:10:31.729Z,8.57
2018-04-06T09:12:59.708Z,7.63
2018-04-06T09:15:35.648Z,7.47
2018-04-06T09:18:03.173Z,8.77
2018-04-06T09:20:30.782Z,8.70
2018-04-06T09:22:58.328Z,7.90
2018-04-06T09:25:25.860Z,8.53
2018-04-06T09:27:53.404Z,8.17
2018-04-06T09:30:20.950Z,8.63
2018-04-06T09:32:48.478Z,8.73
2018-04-06T09:35:16.015Z,8.70
2018-04-06T09:37:44.327Z,8.40
2018-04-06T09:40:11.855Z,8.07
2018-04-06T09:42:40.179Z,9.20
2018-04-06T09:45:07.725Z,8.70
2018-04-06T09:47:35.247Z,9.00
2018-04-06T09:50:03.549Z,8.40
2018-04-06T09:52:31.101Z,7.73
2018-04-06T09:54:58.667Z,7.90
2018-04-06T09:57:26.248Z,7.30
2018-04-06T09:59:54.531Z,7.27
2018-04-06T10:02:22.080Z,7.47
2018-04-06T10:04:49.652Z,7.20
2018-04-06T10:07:17.206Z,6.97
2018-04-06T10:09:44.739Z,7.13
2018-04-06T10:12:12.262Z,7.27
2018-04-06T10:14:39.797Z,7.50
2018-04-06T10:17:07.440Z,6.17
2018-04-06T10:19:34.998Z,6.33
2018-04-06T10:22:02.573Z,6.53
2018-04-06T10:24:30.085Z,6.50
2018-04-06T10:26:58.418Z,6.30
2018-04-06T10:29:25.934Z,6.23
2018-04-06T10:31:53.478Z,6.10
2018-04-06T10:34:21.806Z,6.10
2018-04-06T10:36:49.430Z,6.20
2018-04-06T10:39:17.724Z,6.07
2018-04-06T10:41:45.243Z,5.70
2018-04-06T10:44:12.782Z,5.70
2018-04-06T10:46:40.415Z,6.00
2018-04-06T10:49:07.987Z,5.70
2018-04-06T10:51:35.555Z,5.37
2018-04-06T10:54:03.096Z,5.67
2018-04-06T10:56:30.654Z,5.73
2018-04-06T10:58:58.322Z,5.40
2018-04-06T11:01:25.846Z,5.87
2018-04-06T11:03:54.139Z,6.17
2018-04-06T11:06:21.687Z,5.67
2018-04-06T11:08:49.987Z,5.63
2018-04-06T11:11:17.553Z,5.33
2018-04-06T11:13:45.115Z,5.17
2018-04-06T11:16:12.639Z,5.17
2018-04-06T11:18:40.947Z,5.20
2018-04-06T11:21:08.493Z,5.20
2018-04-06T11:23:36.075Z,5.70
2018-04-06T11:26:03.627Z,5.00
2018-04-06T11:28:31.315Z,4.80
2018-04-06T11:30:58.947Z,5.30
2018-04-06T11:33:26.475Z,4.93
2018-04-06T11:35:54.784Z,5.23
2018-04-06T11:38:22.313Z,5.47
2018-04-06T11:40:50.604Z,4.90
2018-04-06T11:43:18.147Z,5.30
2018-04-06T11:45:46.438Z,4.80
2018-04-06T11:48:14.723Z,4.87
2018-04-06T11:50:42.340Z,4.87
2018-04-06T11:53:09.851Z,4.60
2018-04-06T11:55:37.386Z,4.93
2018-04-06T11:58:05.676Z,4.70
2018-04-06T12:00:33.959Z,4.10
2018-04-06T12:03:01.533Z,4.53
2018-04-06T12:05:29.068Z,4.20
2018-04-06T12:07:57.355Z,4.00
2018-04-06T12:10:24.932Z,4.27
2018-04-06T12:12:52.476Z,4.07
2018-04-06T12:15:20.053Z,3.80
2018-04-06T12:17:47.734Z,3.90
2018-04-06T12:20:15.276Z,3.43
2018-04-06T12:22:42.803Z,4.00
2018-04-06T12:25:11.094Z,3.80
2018-04-06T12:27:38.642Z,3.63
2018-04-06T12:30:06.950Z,3.70
2018-04-06T12:32:34.463Z,3.70
2018-04-06T12:35:02.000Z,3.77
2018-04-06T12:37:29.569Z,4.03
2018-04-06T12:39:57.058Z,3.90
2018-04-06T12:42:25.350Z,3.83
2018-04-06T12:44:52.874Z,4.17
2018-04-06T12:47:21.160Z,4.07
2018-04-06T12:49:48.704Z,3.90
2018-04-06T12:52:20.318Z,3.97
2018-04-06T12:54:47.843Z,3.80
2018-04-06T12:57:16.151Z,3.80
2018-04-06T12:59:43.671Z,4.10
2018-04-06T13:02:11.188Z,4.30
2018-04-06T13:04:38.740Z,4.60
2018-04-06T13:07:06.295Z,4.20
2018-04-06T13:09:33.814Z,3.97
2018-04-06T13:12:02.126Z,4.17
2018-04-06T13:14:29.682Z,4.43
2018-04-06T13:16:57.219Z,4.33
2018-04-06T13:19:25.518Z,4.37
2018-04-06T13:21:53.050Z,4.23
2018-04-06T13:24:21.369Z,3.90
2018-04-06T13:26:48.906Z,4.30
2018-04-06T13:29:16.509Z,4.07
2018-04-06T13:31:44.034Z,4.70
2018-04-06T13:34:11.565Z,4.63
2018-04-06T13:36:39.855Z,4.23
2018-04-06T13:39:08.177Z,4.70
2018-04-06T13:41:35.728Z,4.10
2018-04-06T13:44:03.242Z,4.73
2018-04-06T13:46:31.532Z,4.43
2018-04-06T13:48:59.846Z,4.30
2018-04-06T13:51:27.376Z,4.00
2018-04-06T13:53:55.674Z,4.43
2018-04-06T13:56:23.206Z,4.50
2018-04-06T13:58:51.484Z,4.60
2018-04-06T14:01:19.855Z,4.93
2018-04-06T14:03:47.405Z,4.80
2018-04-06T14:06:15.115Z,4.60
2018-04-06T14:08:42.677Z,4.40
2018-04-06T14:11:10.247Z,5.33
2018-04-06T14:13:37.778Z,5.20
2018-04-06T14:16:05.303Z,4.40
2018-04-06T14:18:32.833Z,5.03
2018-04-06T14:21:00.447Z,4.57
2018-04-06T14:23:28.792Z,4.50
2018-04-06T14:25:56.315Z,4.83
2018-04-06T14:28:23.849Z,4.70
2018-04-06T14:30:52.270Z,4.67
2018-04-06T14:33:19.804Z,4.77
2018-04-06T14:35:47.372Z,4.03
2018-04-06T14:38:14.931Z,4.30
2018-04-06T14:40:42.471Z,4.57
2018-04-06T14:43:10.767Z,4.50
2018-04-06T14:45:38.309Z,4.53
2018-04-06T14:48:06.623Z,4.20
2018-04-06T14:50:34.171Z,4.37
2018-04-06T14:53:01.711Z,4.17
2018-04-06T14:55:30.123Z,4.47
2018-04-06T14:57:57.664Z,4.57
2018-04-06T15:00:25.180Z,4.30
2018-04-06T15:02:52.723Z,4.03
2018-04-06T15:05:20.305Z,3.77
2018-04-06T15:07:47.902Z,4.10
2018-04-06T15:10:15.485Z,4.57
2018-04-06T15:12:43.003Z,4.63
2018-04-06T15:15:11.285Z,4.60
2018-04-06T15:17:39.690Z,4.63
2018-04-06T15:20:07.249Z,4.83
2018-04-06T15:22:34.769Z,4.40
2018-04-06T15:25:03.080Z,4.33
2018-04-06T15:27:30.600Z,4.40
2018-04-06T15:29:58.127Z,4.20
2018-04-06T15:32:25.784Z,4.17
2018-04-06T15:34:53.311Z,4.30
2018-04-06T15:37:20.833Z,4.30
2018-04-06T15:39:48.375Z,4.07
2018-04-06T15:42:16.012Z,4.03
2018-04-06T15:44:43.542Z,4.10
2018-04-06T15:47:11.843Z,3.97
2018-04-06T15:49:39.367Z,3.80
2018-04-06T15:52:07.669Z,3.90
2018-04-06T15:54:35.196Z,4.03
2018-04-06T15:57:02.729Z,3.80
2018-04-06T15:59:31.787Z,3.80
2018-04-06T16:01:59.320Z,3.23
2018-04-06T16:04:27.614Z,3.40
2018-04-06T16:06:55.991Z,3.77
2018-04-06T16:09:24.510Z,3.50
2018-04-06T16:11:52.040Z,3.60
2018-04-06T16:14:19.574Z,3.63
2018-04-06T16:16:47.098Z,4.17
2018-04-06T16:19:14.625Z,3.60
2018-04-06T16:21:42.407Z,3.60
2018-04-06T16:24:09.960Z,3.70
2018-04-06T16:26:37.524Z,3.57
2018-04-06T16:29:05.045Z,4.13
2018-04-06T16:31:33.338Z,3.67
2018-04-06T16:34:01.621Z,3.27
2018-04-06T16:36:29.148Z,3.50
2018-04-06T16:38:56.707Z,3.40
2018-04-06T16:41:25.756Z,3.27
2018-04-06T16:43:53.267Z,3.43
2018-04-06T16:46:20.893Z,3.20
2018-04-06T16:48:48.423Z,3.10
2018-04-06T16:51:15.954Z,3.47
2018-04-06T16:53:44.393Z,3.00
2018-04-06T16:56:11.937Z,3.00
2018-04-06T16:58:39.495Z,2.90
2018-04-06T17:01:07.034Z,3.10
2018-04-06T17:03:34.573Z,3.27
2018-04-06T17:06:02.879Z,3.33
2018-04-06T17:08:30.457Z,3.70
2018-04-06T17:10:58.010Z,3.50
2018-04-06T17:13:25.535Z,3.57
2018-04-06T17:15:53.843Z,3.73
2018-04-06T17:18:21.363Z,3.40
2018-04-06T17:20:48.893Z,3.40
2018-04-06T17:23:16.423Z,4.07
2018-04-06T17:25:43.936Z,3.63
2018-04-06T17:28:11.474Z,3.30
2018-04-06T17:30:39.011Z,3.33
2018-04-06T17:33:06.565Z,3.17
2018-04-06T17:35:34.092Z,3.10
2018-04-06T17:38:02.399Z,3.27
2018-04-06T17:40:29.991Z,3.70
2018-04-06T17:42:57.520Z,4.00
2018-04-06T17:45:25.101Z,4.30
2018-04-06T17:47:52.648Z,4.20
2018-04-06T17:50:20.173Z,4.57
2018-04-06T17:52:48.489Z,4.10
2018-04-06T17:55:16.050Z,3.93
2018-04-06T17:57:43.609Z,4.43
2018-04-06T18:00:11.152Z,4.10
2018-04-06T18:02:38.673Z,4.20
2018-04-06T18:05:07.002Z,4.00
2018-04-06T18:07:34.530Z,4.20
2018-04-06T18:10:02.821Z,4.57
2018-04-06T18:12:30.344Z,4.53
2018-04-06T18:14:57.959Z,4.80
2018-04-06T18:17:25.487Z,5.03
2018-04-06T18:19:53.787Z,4.90
2018-04-06T18:22:21.361Z,5.40
2018-04-06T18:24:48.878Z,4.60
2018-04-06T18:27:17.161Z,4.53
2018-04-06T18:29:45.451Z,4.73
2018-04-06T18:32:13.008Z,4.70
2018-04-06T18:34:41.300Z,5.20
2018-04-06T18:37:08.820Z,5.43
2018-04-06T18:39:36.341Z,5.03
2018-04-06T18:42:03.864Z,4.90
2018-04-06T18:44:32.192Z,4.97
2018-04-06T18:46:59.786Z,5.13
2018-04-06T18:49:27.352Z,4.97
2018-04-06T18:51:55.770Z,5.17
2018-04-06T18:54:23.302Z,5.10
2018-04-06T18:56:51.602Z,4.97
2018-04-06T18:59:19.151Z,5.20
2018-04-06T19:01:46.688Z,5.20
2018-04-06T19:04:14.984Z,5.77
2018-04-06T19:06:42.524Z,5.30
2018-04-06T19:09:10.818Z,5.40
2018-04-06T19:11:39.096Z,5.20
2018-04-06T19:14:06.644Z,5.03
2018-04-06T19:16:34.942Z,4.50
2018-04-06T19:19:02.484Z,4.60
2018-04-06T19:21:30.782Z,5.10
2018-04-06T19:23:58.338Z,4.57
2018-04-06T19:26:25.872Z,5.00
2018-04-06T19:28:54.202Z,4.63
2018-04-06T19:31:21.726Z,4.73
2018-04-06T19:33:50.032Z,5.00
2018-04-06T19:36:17.568Z,4.93
2018-04-06T19:38:45.094Z,4.57
2018-04-06T19:41:12.628Z,4.53
2018-04-06T19:43:40.176Z,4.30
2018-04-06T19:46:07.719Z,4.77
2018-04-06T19:48:35.290Z,4.70
2018-04-06T19:51:02.877Z,4.80
2018-04-06T19:53:30.406Z,4.13
2018-04-06T19:55:57.939Z,4.90
2018-04-06T19:58:26.359Z,5.20
2018-04-06T20:00:53.887Z,4.57
2018-04-06T20:03:21.472Z,4.80
2018-04-06T20:05:49.002Z,5.30
2018-04-06T20:08:16.529Z,4.73
2018-04-06T20:10:44.134Z,4.80
2018-04-06T20:13:11.669Z,4.73
2018-04-06T20:15:39.949Z,4.73
2018-04-06T20:18:08.233Z,4.27
2018-04-06T20:20:36.521Z,4.80
2018-04-06T20:23:04.043Z,5.10
2018-04-06T20:25:31.668Z,4.80
2018-04-06T20:27:59.215Z,4.60
2018-04-06T20:30:26.772Z,4.60
2018-04-06T20:32:54.299Z,5.07
2018-04-06T20:35:22.600Z,4.97
2018-04-06T20:37:50.125Z,4.10
2018-04-06T20:40:17.653Z,5.07
2018-04-06T20:42:45.183Z,5.00
2018-04-06T20:45:12.712Z,4.60
2018-04-06T20:47:41.027Z,4.60
2018-04-06T20:50:08.590Z,4.70
2018-04-06T20:52:36.121Z,4.90
2018-04-06T20:55:04.421Z,4.50
2018-04-06T20:57:31.983Z,5.00
2018-04-06T20:59:59.509Z,4.90
2018-04-06T21:02:27.925Z,4.83
2018-04-06T21:04:55.497Z,4.80
2018-04-06T21:07:23.051Z,4.33
2018-04-06T21:09:50.720Z,5.00
2018-04-06T21:12:18.271Z,5.20
2018-04-06T21:14:45.815Z,4.73
2018-04-06T21:17:13.339Z,5.10
2018-04-06T21:19:40.959Z,5.23
2018-04-06T21:22:08.479Z,5.40
2018-04-06T21:24:36.765Z,5.27
2018-04-06T21:27:05.070Z,5.37
2018-04-06T21:29:32.627Z,5.23
2018-04-06T21:32:00.154Z,5.60
2018-04-06T21:34:28.455Z,5.37
2018-04-06T21:36:55.980Z,5.30
2018-04-06T21:39:23.499Z,5.70
2018-04-06T21:41:51.152Z,5.47
2018-04-06T21:44:18.712Z,4.93
2018-04-06T21:46:46.240Z,5.83
2018-04-06T21:49:14.542Z,5.30
2018-04-06T21:51:42.064Z,5.20
2018-04-06T21:54:10.370Z,5.60
2018-04-06T21:56:37.906Z,5.67
2018-04-06T21:59:06.189Z,5.50
2018-04-06T22:01:34.477Z,5.43
2018-04-06T22:04:02.027Z,5.27
2018-04-06T22:06:30.306Z,5.27
2018-04-06T22:08:58.600Z,5.20
2018-04-06T22:11:26.174Z,5.90
2018-04-06T22:13:53.694Z,5.97
2018-04-06T22:16:22.009Z,5.43
2018-04-06T22:18:49.564Z,5.83
2018-04-06T22:21:17.094Z,6.40
2018-04-06T22:23:45.391Z,5.90
2018-04-06T22:26:12.961Z,5.90
2018-04-06T22:28:40.493Z,5.93
2018-04-06T22:31:08.788Z,6.10
2018-04-06T22:33:36.327Z,6.23
2018-04-06T22:36:04.615Z,6.37
2018-04-06T22:38:32.143Z,6.03
2018-04-06T22:40:59.669Z,6.00
2018-04-06T22:43:27.198Z,6.07
2018-04-06T22:45:54.720Z,5.80
2018-04-06T22:48:22.343Z,6.10
2018-04-06T22:50:49.876Z,6.20
2018-04-06T22:53:17.407Z,5.83
2018-04-06T22:55:45.026Z,6.73
2018-04-06T22:58:12.547Z,6.20
2018-04-06T23:00:40.834Z,6.27
2018-04-06T23:03:08.371Z,6.50
2018-04-06T23:05:35.918Z,6.37
2018-04-06T23:08:03.557Z,6.30
2018-04-06T23:10:31.197Z,6.67
2018-04-06T23:12:58.865Z,6.47
2018-04-06T23:15:26.402Z,6.40
2018-04-06T23:17:54.707Z,6.37
2018-04-06T23:20:22.237Z,6.27
2018-04-06T23:22:50.531Z,6.47
2018-04-06T23:25:18.075Z,6.70
2018-04-06T23:27:46.380Z,6.63
2018-04-06T23:30:13.907Z,6.57
2018-04-06T23:32:42.319Z,6.30
2018-04-06T23:35:09.851Z,6.77
2018-04-06T23:37:38.159Z,6.97
2018-04-06T23:40:05.688Z,6.30
2018-04-06T23:42:33.995Z,7.00
2018-04-06T23:45:01.523Z,6.57
2018-04-06T23:47:29.833Z,6.57
2018-04-06T23:49:57.369Z,6.60
2018-04-06T23:52:25.673Z,6.90
2018-04-06T23:54:53.215Z,6.77
2018-04-06T23:57:20.803Z,6.47
2018-04-06T23:59:48.330Z,7.20
